createdAt,value
2023-05-06T00:00:29.890Z,18.90
2023-05-06T00:01:29.876Z,17.60
2023-05-06T00:02:29.989Z,23.00
2023-05-06T00:03:30.031Z,18.50
2023-05-06T00:04:29.859Z,19.50
2023-05-06T00:05:29.833Z,18.50
2023-05-06T00:06:29.815Z,19.40
2023-05-06T00:07:29.809Z,19.30
2023-05-06T00:08:29.768Z,21.00
2023-05-06T00:09:29.755Z,22.00
2023-05-06T00:10:29.732Z,18.50
2023-05-06T00:11:29.761Z,17.90
2023-05-06T00:12:29.718Z,17.90
2023-05-06T00:13:29.696Z,17.70
2023-05-06T00:14:29.689Z,18.40
2023-05-06T00:15:30.868Z,20.30
2023-05-06T00:16:29.692Z,20.90
2023-05-06T00:17:29.688Z,24.10
2023-05-06T00:18:29.648Z,21.30
2023-05-06T00:19:29.615Z,20.20
2023-05-06T00:20:29.632Z,22.10
2023-05-06T00:21:29.614Z,26.20
2023-05-06T00:22:29.572Z,20.30
2023-05-06T00:23:29.594Z,21.10
2023-05-06T00:24:29.567Z,20.20
2023-05-06T00:25:29.532Z,22.50
2023-05-06T00:26:29.497Z,26.20
2023-05-06T00:27:29.527Z,20.40
2023-05-06T00:28:29.500Z,25.70
2023-05-06T00:29:29.501Z,20.50
2023-05-06T00:30:29.465Z,21.20
2023-05-06T00:31:29.541Z,25.10
2023-05-06T00:32:29.507Z,23.20
2023-05-06T00:33:29.501Z,22.50
2023-05-06T00:34:29.425Z,21.50
2023-05-06T00:35:29.410Z,27.10
2023-05-06T00:36:29.400Z,21.00
2023-05-06T00:37:29.365Z,22.20
2023-05-06T00:38:29.366Z,26.30
2023-05-06T00:39:29.348Z,28.30
2023-05-06T00:40:29.328Z,32.10
2023-05-06T00:41:29.306Z,33.50
2023-05-06T00:42:29.311Z,32.90
2023-05-06T00:43:29.307Z,29.50
2023-05-06T00:44:29.306Z,24.70
2023-05-06T00:45:29.307Z,21.80
2023-05-06T00:46:29.276Z,24.00
2023-05-06T00:47:29.254Z,26.80
2023-05-06T00:48:29.248Z,24.20
2023-05-06T00:49:29.209Z,26.90
2023-05-06T00:50:29.201Z,35.70
2023-05-06T00:51:29.209Z,27.60
2023-05-06T00:52:29.199Z,32.20
2023-05-06T00:53:29.158Z,28.10
2023-05-06T00:54:29.138Z,28.70
2023-05-06T00:55:29.133Z,37.70
2023-05-06T00:56:29.114Z,35.60
2023-05-06T00:57:29.153Z,36.70
2023-05-06T00:58:29.091Z,28.10
2023-05-06T00:59:29.087Z,26.80
2023-05-06T01:00:29.113Z,33.10
2023-05-06T01:01:29.104Z,34.40
2023-05-06T01:02:39.810Z,29.90
2023-05-06T01:03:30.054Z,31.10
2023-05-06T01:04:29.096Z,39.40
2023-05-06T01:05:29.005Z,39.00
2023-05-06T01:06:28.974Z,36.20
2023-05-06T01:07:28.978Z,36.20
2023-05-06T01:08:28.980Z,36.30
2023-05-06T01:09:28.962Z,35.70
2023-05-06T01:10:28.942Z,34.60
2023-05-06T01:11:28.916Z,31.00
2023-05-06T01:12:28.926Z,31.20
2023-05-06T01:13:28.878Z,28.80
2023-05-06T01:14:28.911Z,34.80
2023-05-06T01:15:28.863Z,35.20
2023-05-06T01:16:28.937Z,36.60
2023-05-06T01:17:28.861Z,38.60
2023-05-06T01:18:28.851Z,31.80
2023-05-06T01:19:28.801Z,40.40
2023-05-06T01:20:28.828Z,46.20
2023-05-06T01:21:28.790Z,51.40
2023-05-06T01:26:31.873Z,40.40
2023-05-06T01:27:01.237Z,35.70
2023-05-06T01:28:01.261Z,34.60
2023-05-06T01:29:01.216Z,36.30
2023-05-06T01:30:01.195Z,35.20
2023-05-06T01:31:01.337Z,40.80
2023-05-06T01:32:01.187Z,35.40
2023-05-06T01:33:01.186Z,32.00
2023-05-06T01:34:01.136Z,32.20
2023-05-06T01:35:01.110Z,34.50
2023-05-06T01:36:01.109Z,32.60
2023-05-06T01:37:01.133Z,31.30
2023-05-06T01:38:01.108Z,31.30
2023-05-06T01:39:01.102Z,35.10
2023-05-06T01:40:01.071Z,37.40
2023-05-06T01:41:01.043Z,34.30
2023-05-06T01:42:01.055Z,37.00
2023-05-06T01:43:01.023Z,31.80
2023-05-06T01:44:01.016Z,32.00
2023-05-06T01:45:01.039Z,39.00
2023-05-06T01:46:01.031Z,41.20
2023-05-06T01:47:00.985Z,38.10
2023-05-06T01:48:01.041Z,30.40
2023-05-06T01:49:00.945Z,31.20
2023-05-06T01:50:00.976Z,35.00
2023-05-06T01:51:00.927Z,33.50
2023-05-06T01:52:00.934Z,36.60
2023-05-06T01:53:00.917Z,33.20
2023-05-06T01:54:00.902Z,42.50
2023-05-06T01:55:00.892Z,42.80
2023-05-06T01:56:00.867Z,39.00
2023-05-06T01:57:00.850Z,42.90
2023-05-06T01:58:00.891Z,45.60
2023-05-06T01:59:00.831Z,49.40
2023-05-06T02:00:00.791Z,55.60
2023-05-06T02:01:00.776Z,59.20
2023-05-06T02:02:00.912Z,43.20
2023-05-06T02:03:00.873Z,39.30
2023-05-06T02:04:00.932Z,37.50
2023-05-06T02:05:00.745Z,53.00
2023-05-06T02:06:00.752Z,57.00
2023-05-06T02:07:00.705Z,51.50
2023-05-06T02:08:00.706Z,48.40
2023-05-06T02:09:00.674Z,40.60
2023-05-06T02:10:00.715Z,41.90
2023-05-06T02:11:00.688Z,38.40
2023-05-06T02:12:00.639Z,43.10
2023-05-06T02:13:00.699Z,41.80
2023-05-06T02:14:00.623Z,38.60
2023-05-06T02:15:00.660Z,41.80
2023-05-06T02:16:00.647Z,39.10
2023-05-06T02:17:00.620Z,45.60
2023-05-06T02:18:00.593Z,37.30
2023-05-06T02:19:00.550Z,40.70
2023-05-06T02:20:00.559Z,39.90
2023-05-06T02:21:00.545Z,36.50
2023-05-06T02:22:00.531Z,34.00
2023-05-06T02:23:00.497Z,35.30
2023-05-06T02:24:00.502Z,38.70
2023-05-06T02:25:00.463Z,36.60
2023-05-06T02:26:00.448Z,40.60
2023-05-06T02:27:00.426Z,36.70
2023-05-06T02:28:00.442Z,35.50
2023-05-06T02:29:00.430Z,38.60
2023-05-06T02:30:00.433Z,36.40
2023-05-06T02:31:00.399Z,48.30
2023-05-06T02:32:00.444Z,55.30
2023-05-06T02:33:00.451Z,66.30
2023-05-06T02:34:00.379Z,50.80
2023-05-06T02:35:00.381Z,36.80
2023-05-06T02:36:00.344Z,54.30
2023-05-06T02:37:00.316Z,47.60
2023-05-06T02:38:00.310Z,40.20
2023-05-06T02:39:00.309Z,40.00
2023-05-06T02:40:00.275Z,35.40
2023-05-06T02:41:00.263Z,46.70
2023-05-06T02:42:00.246Z,39.90
2023-05-06T02:43:00.258Z,40.90
2023-05-06T02:44:00.207Z,37.10
2023-05-06T02:45:00.214Z,40.00
2023-05-06T02:46:00.224Z,38.10
2023-05-06T02:47:00.195Z,40.00
2023-05-06T02:48:00.240Z,43.60
2023-05-06T02:49:00.210Z,39.00
2023-05-06T02:50:00.199Z,38.00
2023-05-06T02:51:00.185Z,49.70
2023-05-06T02:52:00.163Z,40.20
2023-05-06T02:53:00.163Z,38.40
2023-05-06T02:54:00.132Z,56.40
2023-05-06T02:55:00.083Z,45.90
2023-05-06T02:56:00.055Z,40.20
2023-05-06T02:57:00.113Z,40.30
2023-05-06T02:58:00.170Z,48.10
2023-05-06T02:59:00.035Z,81.10
2023-05-06T03:00:00.016Z,65.70
2023-05-06T03:01:00.001Z,58.90
2023-05-06T03:02:00.016Z,52.70
2023-05-06T03:03:00.059Z,62.50
2023-05-06T03:04:00.017Z,41.00
2023-05-06T03:04:59.983Z,42.30
2023-05-06T03:05:59.940Z,42.40
2023-05-06T03:06:59.956Z,45.20
2023-05-06T03:07:59.944Z,41.50
2023-05-06T03:08:59.899Z,34.60
2023-05-06T03:09:59.886Z,45.40
2023-05-06T03:10:59.913Z,39.40
2023-05-06T03:11:59.877Z,48.80
2023-05-06T03:12:59.874Z,49.10
2023-05-06T03:13:59.864Z,44.40
2023-05-06T03:14:59.837Z,38.60
2023-05-06T03:15:59.814Z,35.90
2023-05-06T03:16:59.889Z,41.40
2023-05-06T03:17:59.872Z,38.50
2023-05-06T03:18:59.813Z,50.00
2023-05-06T03:19:59.764Z,56.80
2023-05-06T03:20:59.802Z,59.80
2023-05-06T03:21:59.731Z,49.00
2023-05-06T03:22:59.756Z,112.00
2023-05-06T03:23:59.698Z,50.60
2023-05-06T03:24:59.773Z,67.60
2023-05-06T03:25:59.686Z,60.70
2023-05-06T03:26:59.713Z,59.00
2023-05-06T03:27:59.656Z,46.40
2023-05-06T03:28:59.682Z,55.00
2023-05-06T03:29:59.676Z,48.60
2023-05-06T03:30:59.637Z,41.50
2023-05-06T03:31:59.694Z,39.00
2023-05-06T03:32:59.626Z,41.70
2023-05-06T03:33:59.579Z,64.40
2023-05-06T03:34:59.600Z,53.10
2023-05-06T03:35:59.604Z,51.70
2023-05-06T03:36:59.564Z,56.20
2023-05-06T03:37:59.545Z,59.30
2023-05-06T03:38:59.540Z,74.20
2023-05-06T03:39:59.517Z,70.20
2023-05-06T03:40:59.505Z,54.60
2023-05-06T03:41:59.496Z,72.30
2023-05-06T03:42:59.507Z,55.20
2023-05-06T03:43:59.462Z,49.00
2023-05-06T03:44:59.449Z,42.40
2023-05-06T03:45:59.476Z,56.40
2023-05-06T03:46:59.429Z,74.40
2023-05-06T03:47:59.439Z,62.00
2023-05-06T03:48:59.434Z,82.30
2023-05-06T03:49:59.405Z,73.10
2023-05-06T03:50:59.381Z,59.00
2023-05-06T03:51:59.355Z,67.60
2023-05-06T03:52:59.364Z,73.80
2023-05-06T03:53:59.346Z,72.90
2023-05-06T03:54:59.345Z,77.20
2023-05-06T03:55:59.306Z,76.40
2023-05-06T03:56:59.322Z,81.40
2023-05-06T03:57:59.285Z,59.30
2023-05-06T03:58:59.312Z,77.50
2023-05-06T03:59:59.270Z,57.40
2023-05-06T04:00:59.274Z,46.90
2023-05-06T04:01:59.270Z,43.40
2023-05-06T04:02:59.278Z,47.80
2023-05-06T04:03:59.287Z,47.30
2023-05-06T04:04:59.232Z,69.80
2023-05-06T04:05:59.200Z,76.70
2023-05-06T04:06:59.184Z,44.40
2023-05-06T04:07:59.165Z,56.10
2023-05-06T04:08:59.137Z,45.90
2023-05-06T04:09:59.122Z,51.30
2023-05-06T04:10:59.138Z,70.70
2023-05-06T04:11:59.114Z,45.70
2023-05-06T04:12:59.146Z,52.40
2023-05-06T04:13:59.088Z,45.70
2023-05-06T04:14:59.100Z,43.40
2023-05-06T04:15:59.105Z,55.90
2023-05-06T04:16:59.065Z,53.00
2023-05-06T04:17:59.051Z,44.50
2023-05-06T04:18:59.022Z,50.40
2023-05-06T04:19:59.016Z,52.20
2023-05-06T04:20:59.031Z,50.60
2023-05-06T04:21:58.984Z,46.20
2023-05-06T04:22:58.991Z,45.80
2023-05-06T04:23:58.964Z,45.10
2023-05-06T04:24:58.935Z,42.10
2023-05-06T04:25:58.940Z,64.00
2023-05-06T04:26:58.973Z,50.90
2023-05-06T04:27:58.920Z,62.20
2023-05-06T04:28:58.902Z,41.10
2023-05-06T04:29:58.916Z,52.80
2023-05-06T04:30:58.865Z,46.90
2023-05-06T04:31:58.921Z,53.30
2023-05-06T04:32:58.887Z,41.50
2023-05-06T04:33:58.855Z,42.10
2023-05-06T04:34:58.819Z,40.30
2023-05-06T04:35:58.813Z,48.50
2023-05-06T04:36:58.793Z,37.50
2023-05-06T04:37:58.772Z,43.90
2023-05-06T04:38:58.832Z,51.70
2023-05-06T04:39:58.770Z,44.40
2023-05-06T04:40:58.758Z,38.80
2023-05-06T04:41:58.754Z,38.80
2023-05-06T04:42:58.748Z,51.00
2023-05-06T04:43:58.728Z,41.30
2023-05-06T04:44:58.687Z,41.00
2023-05-06T04:45:58.796Z,41.50
2023-05-06T04:46:58.671Z,42.10
2023-05-06T04:47:58.704Z,46.70
2023-05-06T04:48:58.647Z,41.60
2023-05-06T04:49:58.666Z,41.60
2023-05-06T04:50:58.635Z,38.20
2023-05-06T04:51:58.599Z,39.50
2023-05-06T04:52:58.627Z,36.90
2023-05-06T04:53:58.562Z,41.90
2023-05-06T04:54:58.577Z,45.80
2023-05-06T04:55:58.569Z,51.70
2023-05-06T04:56:58.551Z,49.40
2023-05-06T04:57:58.533Z,55.40
2023-05-06T04:58:58.521Z,38.70
2023-05-06T04:59:58.591Z,48.40
2023-05-06T05:00:58.544Z,43.00
2023-05-06T05:01:58.480Z,45.90
2023-05-06T05:02:58.632Z,52.00
2023-05-06T05:03:58.591Z,43.90
2023-05-06T05:04:58.452Z,42.70
2023-05-06T05:05:58.423Z,39.70
2023-05-06T05:06:58.413Z,40.50
2023-05-06T05:07:58.408Z,45.60
2023-05-06T05:08:59.468Z,50.70
2023-05-06T05:09:58.394Z,48.20
2023-05-06T05:10:58.370Z,45.50
2023-05-06T05:11:58.362Z,50.10
2023-05-06T05:12:58.407Z,50.30
2023-05-06T05:13:59.573Z,83.30
2023-05-06T05:14:58.299Z,52.30
2023-05-06T05:15:58.291Z,48.40
2023-05-06T05:16:58.294Z,47.80
2023-05-06T05:17:58.281Z,46.20
2023-05-06T05:18:58.253Z,56.80
2023-05-06T05:19:58.232Z,62.60
2023-05-06T05:20:58.467Z,59.00
2023-05-06T05:21:58.206Z,56.40
2023-05-06T05:22:58.212Z,45.60
2023-05-06T05:23:58.199Z,50.50
2023-05-06T05:24:58.164Z,52.10
2023-05-06T05:25:58.170Z,58.00
2023-05-06T05:26:58.174Z,58.80
2023-05-06T05:27:58.145Z,53.70
2023-05-06T05:28:58.135Z,50.00
2023-05-06T05:29:58.114Z,55.40
2023-05-06T05:30:58.087Z,65.40
2023-05-06T05:31:58.052Z,70.20
2023-05-06T05:32:58.213Z,58.30
2023-05-06T05:33:58.074Z,59.60
2023-05-06T05:34:58.027Z,57.40
2023-05-06T05:35:58.055Z,57.80
2023-05-06T05:36:58.020Z,63.50
2023-05-06T05:37:57.984Z,54.30
2023-05-06T05:38:57.988Z,57.70
2023-05-06T05:39:57.941Z,52.80
2023-05-06T05:40:57.936Z,61.40
2023-05-06T05:41:57.938Z,55.00
2023-05-06T05:42:57.944Z,58.60
2023-05-06T05:43:57.874Z,56.70
2023-05-06T05:44:57.917Z,58.80
2023-05-06T05:45:57.905Z,55.70
2023-05-06T05:46:57.883Z,53.90
2023-05-06T05:47:57.902Z,53.60
2023-05-06T05:48:57.856Z,50.60
2023-05-06T05:49:57.791Z,49.30
2023-05-06T05:50:57.800Z,50.90
2023-05-06T05:51:57.792Z,48.80
2023-05-06T05:52:57.775Z,46.40
2023-05-06T05:53:57.756Z,46.00
2023-05-06T05:54:57.765Z,46.10
2023-05-06T05:55:57.767Z,47.90
2023-05-06T05:56:57.738Z,46.10
2023-05-06T05:57:57.707Z,46.70
2023-05-06T05:58:57.674Z,45.40
2023-05-06T05:59:57.694Z,45.00
2023-05-06T06:00:57.663Z,45.40
2023-05-06T06:01:57.628Z,43.20
2023-05-06T06:02:57.686Z,44.80
2023-05-06T06:03:57.678Z,42.70
2023-05-06T06:04:57.754Z,41.10
2023-05-06T06:05:57.556Z,42.50
2023-05-06T06:06:57.564Z,43.80
2023-05-06T06:07:57.538Z,39.30
2023-05-06T06:08:57.542Z,40.60
2023-05-06T06:09:57.579Z,39.10
2023-05-06T06:10:57.552Z,37.20
2023-05-06T06:11:57.548Z,38.30
2023-05-06T06:12:57.564Z,44.40
2023-05-06T06:13:57.486Z,47.80
2023-05-06T06:14:57.452Z,43.60
2023-05-06T06:15:57.554Z,43.60
2023-05-06T06:16:57.443Z,41.40
2023-05-06T06:17:57.457Z,40.30
2023-05-06T06:18:57.403Z,37.50
2023-05-06T06:19:57.385Z,40.70
2023-05-06T06:20:57.408Z,41.30
2023-05-06T06:21:57.457Z,39.80
2023-05-06T06:22:57.400Z,40.60
2023-05-06T06:23:57.328Z,37.60
2023-05-06T06:24:57.296Z,40.10
2023-05-06T06:25:57.289Z,39.10
2023-05-06T06:26:57.306Z,39.20
2023-05-06T06:27:57.283Z,33.80
2023-05-06T06:28:57.262Z,32.50
2023-05-06T06:29:57.265Z,33.00
2023-05-06T06:30:57.276Z,31.90
2023-05-06T06:31:57.274Z,32.60
2023-05-06T06:32:57.323Z,34.10
2023-05-06T06:33:57.322Z,32.00
2023-05-06T06:34:57.173Z,34.20
2023-05-06T06:35:57.219Z,34.00
2023-05-06T06:36:57.184Z,34.20
2023-05-06T06:37:57.142Z,30.10
2023-05-06T06:38:57.110Z,28.80
2023-05-06T06:39:57.129Z,29.80
2023-05-06T06:40:57.104Z,29.00
2023-05-06T06:41:57.102Z,27.40
2023-05-06T06:42:57.056Z,29.40
2023-05-06T06:43:57.062Z,23.80
2023-05-06T06:44:57.031Z,21.60
2023-05-06T06:45:57.188Z,23.60
2023-05-06T06:46:57.088Z,25.60
2023-05-06T06:47:57.098Z,27.60
2023-05-06T06:48:56.992Z,24.80
2023-05-06T06:49:56.954Z,21.30
2023-05-06T06:50:56.970Z,20.90
2023-05-06T06:51:56.950Z,23.10
2023-05-06T06:52:56.950Z,22.20
2023-05-06T06:53:56.921Z,22.30
2023-05-06T06:54:56.898Z,21.10
2023-05-06T06:55:56.897Z,19.70
2023-05-06T06:56:56.910Z,19.40
2023-05-06T06:57:56.874Z,18.80
2023-05-06T06:58:56.909Z,19.20
2023-05-06T06:59:56.860Z,16.70
2023-05-06T07:00:56.886Z,17.30
2023-05-06T07:01:56.826Z,17.40
2023-05-06T07:02:56.880Z,17.80
2023-05-06T07:03:56.818Z,17.00
2023-05-06T07:04:56.761Z,15.70
2023-05-06T07:05:56.769Z,18.20
2023-05-06T07:06:56.780Z,17.90
2023-05-06T07:07:56.728Z,14.20
2023-05-06T07:08:56.693Z,14.20
2023-05-06T07:09:56.754Z,16.00
2023-05-06T07:10:56.722Z,14.90
2023-05-06T07:11:56.738Z,14.90
2023-05-06T07:12:56.721Z,15.30
2023-05-06T07:13:56.658Z,14.20
2023-05-06T07:14:56.642Z,14.70
2023-05-06T07:15:56.649Z,12.90
2023-05-06T07:16:56.629Z,12.80
2023-05-06T07:17:56.649Z,11.90
2023-05-06T07:18:56.603Z,12.40
2023-05-06T07:19:56.559Z,11.80
2023-05-06T07:20:56.548Z,11.80
2023-05-06T07:21:56.562Z,11.90
2023-05-06T07:22:56.555Z,11.60
2023-05-06T07:23:56.518Z,12.60
2023-05-06T07:24:56.498Z,12.60
2023-05-06T07:25:56.514Z,12.50
2023-05-06T07:26:56.464Z,9.60
2023-05-06T07:27:56.505Z,8.90
2023-05-06T07:28:56.439Z,8.00
2023-05-06T07:29:56.420Z,8.30
2023-05-06T07:30:56.454Z,8.80
2023-05-06T07:31:56.447Z,8.80
2023-05-06T07:32:56.520Z,10.30
2023-05-06T07:33:56.423Z,9.80
2023-05-06T07:34:56.359Z,10.10
2023-05-06T07:35:56.358Z,10.40
2023-05-06T07:36:56.345Z,10.50
2023-05-06T07:37:56.377Z,10.60
2023-05-06T07:38:56.334Z,11.90
2023-05-06T07:39:56.317Z,11.80
2023-05-06T07:40:56.318Z,11.00
2023-05-06T07:41:56.281Z,11.20
2023-05-06T07:42:56.257Z,12.00
2023-05-06T07:43:56.238Z,10.60
2023-05-06T07:44:56.204Z,11.10
2023-05-06T07:45:56.269Z,10.80
2023-05-06T07:46:56.327Z,10.00
2023-05-06T07:47:56.184Z,10.50
2023-05-06T07:48:56.171Z,11.00
2023-05-06T07:49:56.158Z,11.60
2023-05-06T07:50:56.152Z,11.00
2023-05-06T07:51:56.130Z,12.70
2023-05-06T07:52:56.145Z,9.60
2023-05-06T07:53:56.131Z,9.50
2023-05-06T07:54:56.070Z,10.20
2023-05-06T07:55:56.084Z,9.60
2023-05-06T07:56:56.028Z,9.90
2023-05-06T07:57:56.063Z,11.00
2023-05-06T07:58:56.042Z,11.20
2023-05-06T07:59:56.072Z,10.30
2023-05-06T08:00:56.051Z,9.10
2023-05-06T08:01:55.982Z,8.70
2023-05-06T08:02:56.190Z,8.10
2023-05-06T08:03:56.076Z,9.80
2023-05-06T08:04:56.017Z,7.00
2023-05-06T08:05:55.971Z,5.70
2023-05-06T08:06:55.963Z,5.10
2023-05-06T08:07:55.964Z,5.70
2023-05-06T08:08:55.882Z,5.70
2023-05-06T08:09:55.910Z,6.50
2023-05-06T08:10:55.890Z,7.00
2023-05-06T08:11:55.880Z,5.50
2023-05-06T08:12:55.929Z,6.20
2023-05-06T08:13:55.857Z,4.90
2023-05-06T08:14:55.809Z,4.90
2023-05-06T08:15:55.887Z,4.90
2023-05-06T08:16:55.775Z,4.90
2023-05-06T08:17:56.073Z,5.10
2023-05-06T08:18:55.765Z,5.50
2023-05-06T08:19:55.757Z,4.30
2023-05-06T08:20:55.722Z,5.20
2023-05-06T08:21:55.789Z,5.30
2023-05-06T08:22:55.729Z,5.60
2023-05-06T08:23:55.685Z,4.70
2023-05-06T08:24:55.705Z,5.10
2023-05-06T08:25:55.687Z,5.20
2023-05-06T08:26:55.653Z,4.10
2023-05-06T08:27:55.646Z,4.40
2023-05-06T08:28:55.612Z,4.40
2023-05-06T08:29:55.625Z,4.50
2023-05-06T08:30:55.607Z,4.00
2023-05-06T08:31:55.625Z,4.30
2023-05-06T08:32:55.615Z,4.70
2023-05-06T08:33:55.584Z,3.80
2023-05-06T08:34:55.600Z,3.90
2023-05-06T08:35:55.563Z,3.50
2023-05-06T08:36:55.512Z,4.00
2023-05-06T08:37:55.538Z,3.50
2023-05-06T08:38:55.489Z,8.00
2023-05-06T08:39:55.540Z,6.10
2023-05-06T08:40:55.478Z,7.40
2023-05-06T08:41:55.455Z,6.60
2023-05-06T08:42:55.444Z,3.80
2023-05-06T08:43:55.455Z,3.40
2023-05-06T08:44:55.463Z,3.00
2023-05-06T08:45:55.443Z,2.70
2023-05-06T08:46:55.392Z,3.80
2023-05-06T08:47:55.405Z,3.30
2023-05-06T08:48:55.383Z,3.00
2023-05-06T08:49:55.351Z,2.90
2023-05-06T08:50:55.348Z,3.20
2023-05-06T08:51:55.341Z,3.90
2023-05-06T08:52:55.294Z,3.30
2023-05-06T08:53:55.312Z,3.00
2023-05-06T08:54:55.323Z,3.10
2023-05-06T08:55:55.269Z,3.10
2023-05-06T08:56:55.282Z,2.90
2023-05-06T08:57:55.240Z,3.20
2023-05-06T08:58:55.228Z,2.80
2023-05-06T08:59:55.226Z,3.10
2023-05-06T09:00:55.264Z,4.20
2023-05-06T09:01:55.244Z,5.10
2023-05-06T09:02:55.252Z,3.30
2023-05-06T09:03:55.257Z,3.50
2023-05-06T09:04:55.147Z,3.40
2023-05-06T09:05:55.129Z,3.70
2023-05-06T09:06:55.095Z,3.10
2023-05-06T09:07:55.087Z,2.90
2023-05-06T09:08:55.105Z,3.20
2023-05-06T09:09:55.119Z,3.10
2023-05-06T09:10:55.082Z,3.50
2023-05-06T09:11:55.082Z,2.90
2023-05-06T09:12:55.734Z,2.60
2023-05-06T09:13:55.020Z,3.80
2023-05-06T09:14:55.003Z,3.00
2023-05-06T09:15:55.017Z,2.90
2023-05-06T09:16:55.026Z,2.60
2023-05-06T09:17:55.076Z,2.70
2023-05-06T09:18:54.952Z,3.00
2023-05-06T09:19:54.943Z,3.30
2023-05-06T09:20:54.893Z,3.10
2023-05-06T09:21:54.919Z,3.90
2023-05-06T09:22:54.899Z,2.90
2023-05-06T09:23:54.894Z,2.70
2023-05-06T09:24:54.878Z,2.30
2023-05-06T09:25:54.872Z,2.50
2023-05-06T09:26:54.865Z,2.00
2023-05-06T09:27:54.836Z,2.30
2023-05-06T09:28:54.814Z,1.80
2023-05-06T09:29:54.852Z,1.50
2023-05-06T09:30:54.910Z,2.80
2023-05-06T09:31:54.803Z,3.00
2023-05-06T09:32:54.780Z,2.50
2023-05-06T09:33:54.748Z,3.20
2023-05-06T09:34:54.720Z,1.60
2023-05-06T09:35:54.773Z,2.20
2023-05-06T09:36:54.761Z,1.60
2023-05-06T09:37:54.707Z,2.70
2023-05-06T09:38:54.716Z,2.50
2023-05-06T09:39:54.669Z,2.00
2023-05-06T09:40:54.660Z,2.50
2023-05-06T09:41:54.668Z,1.90
2023-05-06T09:42:54.656Z,2.40
2023-05-06T09:43:54.634Z,3.10
2023-05-06T09:44:54.592Z,2.80
2023-05-06T09:45:54.643Z,2.90
2023-05-06T09:46:54.561Z,2.00
2023-05-06T09:47:54.582Z,1.70
2023-05-06T09:48:54.644Z,1.70
2023-05-06T09:49:54.580Z,2.20
2023-05-06T09:50:54.556Z,1.80
2023-05-06T09:51:54.514Z,2.30
2023-05-06T09:52:54.485Z,2.10
2023-05-06T09:53:54.482Z,2.10
2023-05-06T09:54:54.524Z,1.50
2023-05-06T09:55:54.436Z,2.70
2023-05-06T09:56:54.452Z,2.20
2023-05-06T09:57:54.477Z,2.20
2023-05-06T09:58:54.396Z,2.40
2023-05-06T09:59:54.417Z,3.10
2023-05-06T10:00:54.384Z,2.80
2023-05-06T10:01:54.414Z,2.90
2023-05-06T10:02:54.520Z,2.50
2023-05-06T10:03:54.503Z,2.30
2023-05-06T10:04:54.424Z,2.40
2023-05-06T10:05:54.313Z,2.90
2023-05-06T10:06:54.326Z,2.40
2023-05-06T10:07:54.306Z,1.90
2023-05-06T10:08:54.297Z,2.70
2023-05-06T10:09:54.256Z,3.00
2023-05-06T10:10:54.283Z,1.90
2023-05-06T10:11:54.241Z,1.40
2023-05-06T10:12:54.256Z,1.40
2023-05-06T10:13:54.219Z,2.50
2023-05-06T10:14:54.212Z,2.20
2023-05-06T10:15:54.235Z,2.00
2023-05-06T10:16:54.175Z,2.30
2023-05-06T10:17:54.205Z,2.70
2023-05-06T10:18:54.181Z,1.40
2023-05-06T10:19:54.123Z,2.70
2023-05-06T10:20:54.218Z,1.60
2023-05-06T10:21:54.106Z,2.30
2023-05-06T10:22:54.120Z,2.90
2023-05-06T10:23:54.072Z,2.10
2023-05-06T10:24:54.060Z,1.90
2023-05-06T10:25:54.034Z,1.50
2023-05-06T10:26:54.035Z,2.40
2023-05-06T10:27:54.021Z,1.10
2023-05-06T10:28:54.045Z,1.00
2023-05-06T10:29:54.022Z,2.20
2023-05-06T10:30:53.982Z,2.50
2023-05-06T10:31:54.063Z,2.00
2023-05-06T10:32:54.075Z,1.90
2023-05-06T10:33:53.955Z,2.10
2023-05-06T10:34:53.963Z,1.30
2023-05-06T10:35:53.934Z,1.40
2023-05-06T10:36:53.902Z,1.60
2023-05-06T10:37:53.941Z,2.40
2023-05-06T10:38:53.900Z,2.00
2023-05-06T10:39:53.841Z,0.80
2023-05-06T10:40:53.868Z,2.20
2023-05-06T10:41:53.823Z,1.20
2023-05-06T10:42:53.844Z,1.90
2023-05-06T10:43:53.812Z,1.50
2023-05-06T10:44:53.827Z,2.10
2023-05-06T10:45:53.786Z,2.20
2023-05-06T10:46:53.775Z,1.70
2023-05-06T10:47:53.810Z,2.40
2023-05-06T10:48:53.812Z,2.50
2023-05-06T10:49:53.748Z,2.20
2023-05-06T10:50:53.741Z,1.40
2023-05-06T10:51:53.697Z,1.90
2023-05-06T10:52:53.710Z,1.30
2023-05-06T10:53:53.729Z,2.70
2023-05-06T10:54:53.682Z,1.10
2023-05-06T10:55:53.641Z,1.60
2023-05-06T10:56:53.625Z,1.30
2023-05-06T10:57:53.642Z,1.10
2023-05-06T10:58:53.666Z,1.90
2023-05-06T10:59:53.619Z,1.30
2023-05-06T11:00:53.770Z,1.60
2023-05-06T11:01:53.553Z,1.90
2023-05-06T11:02:53.639Z,1.40
2023-05-06T11:03:53.540Z,1.50
2023-05-06T11:04:53.568Z,1.30
2023-05-06T11:05:53.514Z,1.80
2023-05-06T11:06:53.545Z,1.60
2023-05-06T11:07:53.482Z,1.40
2023-05-06T11:08:53.492Z,1.60
2023-05-06T11:09:53.469Z,2.80
2023-05-06T11:10:53.484Z,1.50
2023-05-06T11:11:53.402Z,1.40
2023-05-06T11:12:53.551Z,1.60
2023-05-06T11:13:53.403Z,1.60
2023-05-06T11:14:53.420Z,1.10
2023-05-06T11:15:53.447Z,1.80
2023-05-06T11:16:53.393Z,1.70
2023-05-06T11:17:53.401Z,1.70
2023-05-06T11:18:53.337Z,1.80
2023-05-06T11:19:53.287Z,1.60
2023-05-06T11:20:53.408Z,1.90
2023-05-06T11:21:53.346Z,1.80
2023-05-06T11:22:53.270Z,1.40
2023-05-06T11:23:53.297Z,2.10
2023-05-06T11:24:53.297Z,1.60
2023-05-06T11:25:53.229Z,1.60
2023-05-06T11:26:53.282Z,1.70
2023-05-06T11:27:53.216Z,3.00
2023-05-06T11:28:53.231Z,2.20
2023-05-06T11:29:53.224Z,1.40
2023-05-06T11:30:53.192Z,2.30
2023-05-06T11:31:53.155Z,2.50
2023-05-06T11:32:53.217Z,1.80
2023-05-06T11:33:53.156Z,2.00
2023-05-06T11:34:53.134Z,1.90
2023-05-06T11:35:53.129Z,1.00
2023-05-06T11:36:53.120Z,2.00
2023-05-06T11:37:53.096Z,1.90
2023-05-06T11:38:53.295Z,1.80
2023-05-06T11:39:53.160Z,3.00
2023-05-06T11:40:53.090Z,2.50
2023-05-06T11:41:53.007Z,1.60
2023-05-06T11:42:53.002Z,1.40
2023-05-06T11:43:53.010Z,1.60
2023-05-06T11:44:53.034Z,1.20
2023-05-06T11:45:52.981Z,1.40
2023-05-06T11:46:52.963Z,0.90
2023-05-06T11:47:52.995Z,1.30
2023-05-06T11:48:52.922Z,2.10
2023-05-06T11:49:52.933Z,1.30
2023-05-06T11:50:52.873Z,1.80
2023-05-06T11:51:52.889Z,2.10
2023-05-06T11:52:52.879Z,0.80
2023-05-06T11:53:52.827Z,2.60
2023-05-06T11:54:52.866Z,1.00
2023-05-06T11:55:52.810Z,1.80
2023-05-06T11:56:52.830Z,1.50
2023-05-06T11:57:52.810Z,1.10
2023-05-06T11:58:52.827Z,1.50
2023-05-06T11:59:52.772Z,0.90
2023-05-06T12:00:52.766Z,1.90
2023-05-06T12:01:52.749Z,2.10
2023-05-06T12:02:52.901Z,0.80
2023-05-06T12:03:52.800Z,1.30
2023-05-06T12:04:52.991Z,1.70
2023-05-06T12:05:52.692Z,2.10
2023-05-06T12:06:52.683Z,1.60
2023-05-06T12:07:52.661Z,1.60
2023-05-06T12:08:52.643Z,0.70
2023-05-06T12:09:52.653Z,0.70
2023-05-06T12:10:52.615Z,1.70
2023-05-06T12:11:52.614Z,1.40
2023-05-06T12:12:52.611Z,1.20
2023-05-06T12:13:52.620Z,1.60
2023-05-06T12:14:52.586Z,1.00
2023-05-06T12:15:52.678Z,1.00
2023-05-06T12:16:54.104Z,2.20
2023-05-06T12:17:52.562Z,0.90
2023-05-06T12:18:52.510Z,1.20
2023-05-06T12:19:52.474Z,1.00
2023-05-06T12:20:52.485Z,0.80
2023-05-06T12:21:52.453Z,2.00
2023-05-06T12:22:54.357Z,2.10
2023-05-06T12:23:52.586Z,1.30
2023-05-06T12:24:52.431Z,1.10
2023-05-06T12:25:52.407Z,0.90
2023-05-06T12:26:52.411Z,0.60
2023-05-06T12:27:52.407Z,1.40
2023-05-06T12:28:52.451Z,1.40
2023-05-06T12:29:52.348Z,2.20
2023-05-06T12:30:52.367Z,1.00
2023-05-06T12:31:52.413Z,1.90
2023-05-06T12:32:52.436Z,1.00
2023-05-06T12:33:53.300Z,1.40
2023-05-06T12:34:52.315Z,0.90
2023-05-06T12:35:52.321Z,1.50
2023-05-06T12:36:52.303Z,1.30
2023-05-06T12:37:52.262Z,1.40
2023-05-06T12:38:52.268Z,1.30
2023-05-06T12:39:52.291Z,1.60
2023-05-06T12:40:52.243Z,1.10
2023-05-06T12:41:52.212Z,1.20
2023-05-06T12:42:52.208Z,1.50
2023-05-06T12:43:52.200Z,1.80
2023-05-06T12:44:52.212Z,2.50
2023-05-06T12:45:52.202Z,1.10
2023-05-06T12:46:52.147Z,1.50
2023-05-06T12:47:52.222Z,1.60
2023-05-06T12:48:52.153Z,1.70
2023-05-06T12:49:52.085Z,1.20
2023-05-06T12:50:52.074Z,1.90
2023-05-06T12:51:52.121Z,1.90
2023-05-06T12:52:52.091Z,1.30
2023-05-06T12:53:52.044Z,0.60
2023-05-06T12:54:53.465Z,0.80
2023-05-06T12:55:52.036Z,1.30
2023-05-06T12:56:52.006Z,1.80
2023-05-06T12:57:51.991Z,2.60
2023-05-06T12:58:51.995Z,1.30
2023-05-06T12:59:52.072Z,1.40
2023-05-06T13:00:51.982Z,1.10
2023-05-06T13:01:51.918Z,1.30
2023-05-06T13:02:52.027Z,1.50
2023-05-06T13:03:51.892Z,0.80
2023-05-06T13:04:51.904Z,1.60
2023-05-06T13:05:51.969Z,1.20